Chestnut, Illinois
Current Conditions -  °F | °C
As of 4:15 PM on Monday 26 Jan 2015 (Local Time) from KAAA Reporting Station
Overcast Overcast  
Wind Chill: 24°   Ceiling: 900
Heat Index: 32°   Visibility: 10mi
Dew Point: 29°   Wind: 9mph
Humidity: 90%   Direction: 180°S
Pressure: 29.89"   Gusts: NA
Location:  40.05°N, 89.19°W
Report Text: KAAA 262215Z AUTO 18008KT 10SM OVC009 00/M02 A2989 RMK AO2 T10021017
Loading
Personal Weather Stations






























Interactive Weather Map New forecast layout! Learn more

10-Day Weather Forecast

Advertisements
Track Severe Weather on mobile